sensor_id;sensor_type;location;lat;lon;timestamp;P1;P2;P0
54553;PMS5003;40450;55.848;-3.572;2023-07-29T00:02:22;6;3;
54553;PMS5003;40450;55.848;-3.572;2023-07-29T00:04:52;2;2;
54553;PMS5003;40450;55.848;-3.572;2023-07-29T00:07:22;4;4;
54553;PMS5003;40450;55.848;-3.572;2023-07-29T00:09:53;2;2;
54553;PMS5003;40450;55.848;-3.572;2023-07-29T00:12:23;3;1;
54553;PMS5003;40450;55.848;-3.572;2023-07-29T00:14:53;2;1;
54553;PMS5003;40450;55.848;-3.572;2023-07-29T00:17:24;3;3;
54553;PMS5003;40450;55.848;-3.572;2023-07-29T00:19:54;2;2;
54553;PMS5003;40450;55.848;-3.572;2023-07-29T00:22:24;6;5;
54553;PMS5003;40450;55.848;-3.572;2023-07-29T00:24:55;2;2;
54553;PMS5003;40450;55.848;-3.572;2023-07-29T00:27:25;3;3;
54553;PMS5003;40450;55.848;-3.572;2023-07-29T00:29:56;2;2;
54553;PMS5003;40450;55.848;-3.572;2023-07-29T00:32:26;3;3;
54553;PMS5003;40450;55.848;-3.572;2023-07-29T00:34:57;4;4;
54553;PMS5003;40450;55.848;-3.572;2023-07-29T00:37:27;2;2;
54553;PMS5003;40450;55.848;-3.572;2023-07-29T00:39:57;2;2;
54553;PMS5003;40450;55.848;-3.572;2023-07-29T00:42:28;3;3;
54553;PMS5003;40450;55.848;-3.572;2023-07-29T00:44:58;2;2;
54553;PMS5003;40450;55.848;-3.572;2023-07-29T00:47:28;1;1;
54553;PMS5003;40450;55.848;-3.572;2023-07-29T00:49:59;3;3;
54553;PMS5003;40450;55.848;-3.572;2023-07-29T00:52:29;3;3;
54553;PMS5003;40450;55.848;-3.572;2023-07-29T00:54:59;4;3;
54553;PMS5003;40450;55.848;-3.572;2023-07-29T00:57:30;5;5;
54553;PMS5003;40450;55.848;-3.572;2023-07-29T01:00:00;5;3;
54553;PMS5003;40450;55.848;-3.572;2023-07-29T01:02:30;5;5;
54553;PMS5003;40450;55.848;-3.572;2023-07-29T01:05:01;3;3;
54553;PMS5003;40450;55.848;-3.572;2023-07-29T01:07:33;4;4;
54553;PMS5003;40450;55.848;-3.572;2023-07-29T01:10:07;3;3;
54553;PMS5003;40450;55.848;-3.572;2023-07-29T01:12:35;3;3;
54553;PMS5003;40450;55.848;-3.572;2023-07-29T01:15:05;3;3;
54553;PMS5003;40450;55.848;-3.572;2023-07-29T01:17:33;4;4;
54553;PMS5003;40450;55.848;-3.572;2023-07-29T01:20:04;6;3;
54553;PMS5003;40450;55.848;-3.572;2023-07-29T01:22:33;4;4;
54553;PMS5003;40450;55.848;-3.572;2023-07-29T01:25:04;4;4;
54553;PMS5003;40450;55.848;-3.572;2023-07-29T01:27:34;8;5;
54553;PMS5003;40450;55.848;-3.572;2023-07-29T01:30:05;6;5;
54553;PMS5003;40450;55.848;-3.572;2023-07-29T01:32:36;3;3;
54553;PMS5003;40450;55.848;-3.572;2023-07-29T01:35:07;6;3;
54553;PMS5003;40450;55.848;-3.572;2023-07-29T01:37:35;5;5;
54553;PMS5003;40450;55.848;-3.572;2023-07-29T01:40:06;5;3;
54553;PMS5003;40450;55.848;-3.572;2023-07-29T01:42:35;6;5;
54553;PMS5003;40450;55.848;-3.572;2023-07-29T01:45:06;6;3;
54553;PMS5003;40450;55.848;-3.572;2023-07-29T01:47:36;4;3;
54553;PMS5003;40450;55.848;-3.572;2023-07-29T01:50:07;5;3;
54553;PMS5003;40450;55.848;-3.572;2023-07-29T01:52:37;6;6;
54553;PMS5003;40450;55.848;-3.572;2023-07-29T01:55:07;5;5;
54553;PMS5003;40450;55.848;-3.572;2023-07-29T01:57:38;6;5;
54553;PMS5003;40450;55.848;-3.572;2023-07-29T02:00:08;4;4;
54553;PMS5003;40450;55.848;-3.572;2023-07-29T02:02:38;5;4;
54553;PMS5003;40450;55.848;-3.572;2023-07-29T02:05:09;7;5;
54553;PMS5003;40450;55.848;-3.572;2023-07-29T02:07:39;3;3;
54553;PMS5003;40450;55.848;-3.572;2023-07-29T02:10:09;8;7;
54553;PMS5003;40450;55.848;-3.572;2023-07-29T02:12:39;5;5;
54553;PMS5003;40450;55.848;-3.572;2023-07-29T02:15:10;5;5;
54553;PMS5003;40450;55.848;-3.572;2023-07-29T02:17:41;4;4;
54553;PMS5003;40450;55.848;-3.572;2023-07-29T02:20:11;5;2;
54553;PMS5003;40450;55.848;-3.572;2023-07-29T02:22:41;3;3;
54553;PMS5003;40450;55.848;-3.572;2023-07-29T02:25:11;4;2;
54553;PMS5003;40450;55.848;-3.572;2023-07-29T02:27:41;1;1;
54553;PMS5003;40450;55.848;-3.572;2023-07-29T02:30:11;4;4;
54553;PMS5003;40450;55.848;-3.572;2023-07-29T02:32:42;4;4;
54553;PMS5003;40450;55.848;-3.572;2023-07-29T02:35:12;5;2;
54553;PMS5003;40450;55.848;-3.572;2023-07-29T02:37:42;7;4;
54553;PMS5003;40450;55.848;-3.572;2023-07-29T02:40:13;6;6;
54553;PMS5003;40450;55.848;-3.572;2023-07-29T02:42:44;3;3;
54553;PMS5003;40450;55.848;-3.572;2023-07-29T02:45:14;6;5;
54553;PMS5003;40450;55.848;-3.572;2023-07-29T02:47:44;4;3;
54553;PMS5003;40450;55.848;-3.572;2023-07-29T02:50:15;5;4;
54553;PMS5003;40450;55.848;-3.572;2023-07-29T02:52:45;5;5;
54553;PMS5003;40450;55.848;-3.572;2023-07-29T02:55:15;5;5;
54553;PMS5003;40450;55.848;-3.572;2023-07-29T02:57:46;8;6;
54553;PMS5003;40450;55.848;-3.572;2023-07-29T03:00:16;5;4;
54553;PMS5003;40450;55.848;-3.572;2023-07-29T03:02:46;10;6;
54553;PMS5003;40450;55.848;-3.572;2023-07-29T03:05:17;6;5;
54553;PMS5003;40450;55.848;-3.572;2023-07-29T03:07:48;5;5;
54553;PMS5003;40450;55.848;-3.572;2023-07-29T03:10:18;7;7;
54553;PMS5003;40450;55.848;-3.572;2023-07-29T03:12:48;5;5;
54553;PMS5003;40450;55.848;-3.572;2023-07-29T03:15:19;10;8;
54553;PMS5003;40450;55.848;-3.572;2023-07-29T03:17:49;6;5;
54553;PMS5003;40450;55.848;-3.572;2023-07-29T03:20:19;9;6;
54553;PMS5003;40450;55.848;-3.572;2023-07-29T03:22:50;5;5;
54553;PMS5003;40450;55.848;-3.572;2023-07-29T03:25:20;5;5;
54553;PMS5003;40450;55.848;-3.572;2023-07-29T03:27:50;4;3;
54553;PMS5003;40450;55.848;-3.572;2023-07-29T03:30:21;4;4;
54553;PMS5003;40450;55.848;-3.572;2023-07-29T03:32:51;6;6;
54553;PMS5003;40450;55.848;-3.572;2023-07-29T03:35:21;3;3;
54553;PMS5003;40450;55.848;-3.572;2023-07-29T03:37:52;6;6;
54553;PMS5003;40450;55.848;-3.572;2023-07-29T03:40:22;4;4;
54553;PMS5003;40450;55.848;-3.572;2023-07-29T03:42:52;5;5;
54553;PMS5003;40450;55.848;-3.572;2023-07-29T03:45:22;12;6;
54553;PMS5003;40450;55.848;-3.572;2023-07-29T03:47:53;5;5;
54553;PMS5003;40450;55.848;-3.572;2023-07-29T03:50:23;6;5;
54553;PMS5003;40450;55.848;-3.572;2023-07-29T03:52:53;6;6;
54553;PMS5003;40450;55.848;-3.572;2023-07-29T03:55:24;7;7;
54553;PMS5003;40450;55.848;-3.572;2023-07-29T03:57:54;6;5;
54553;PMS5003;40450;55.848;-3.572;2023-07-29T04:00:25;9;5;
54553;PMS5003;40450;55.848;-3.572;2023-07-29T04:02:55;5;5;
54553;PMS5003;40450;55.848;-3.572;2023-07-29T04:05:25;5;5;
54553;PMS5003;40450;55.848;-3.572;2023-07-29T04:07:55;8;5;
54553;PMS5003;40450;55.848;-3.572;2023-07-29T04:10:26;5;5;
54553;PMS5003;40450;55.848;-3.572;2023-07-29T04:12:56;5;5;
54553;PMS5003;40450;55.848;-3.572;2023-07-29T04:15:26;7;5;
54553;PMS5003;40450;55.848;-3.572;2023-07-29T04:17:56;6;5;
54553;PMS5003;40450;55.848;-3.572;2023-07-29T04:20:26;4;4;
54553;PMS5003;40450;55.848;-3.572;2023-07-29T04:22:57;3;3;
54553;PMS5003;40450;55.848;-3.572;2023-07-29T04:25:27;3;3;
54553;PMS5003;40450;55.848;-3.572;2023-07-29T04:27:58;3;3;
54553;PMS5003;40450;55.848;-3.572;2023-07-29T04:30:28;4;3;
54553;PMS5003;40450;55.848;-3.572;2023-07-29T04:32:59;4;4;
54553;PMS5003;40450;55.848;-3.572;2023-07-29T04:35:29;3;3;
54553;PMS5003;40450;55.848;-3.572;2023-07-29T04:37:59;3;3;
54553;PMS5003;40450;55.848;-3.572;2023-07-29T04:40:32;3;1;
54553;PMS5003;40450;55.848;-3.572;2023-07-29T04:43:00;4;2;
54553;PMS5003;40450;55.848;-3.572;2023-07-29T04:45:30;4;3;
54553;PMS5003;40450;55.848;-3.572;2023-07-29T04:48:01;3;3;
54553;PMS5003;40450;55.848;-3.572;2023-07-29T04:50:31;2;2;
54553;PMS5003;40450;55.848;-3.572;2023-07-29T04:53:01;4;4;
54553;PMS5003;40450;55.848;-3.572;2023-07-29T04:55:32;1;1;
54553;PMS5003;40450;55.848;-3.572;2023-07-29T04:58:02;2;2;
54553;PMS5003;40450;55.848;-3.572;2023-07-29T05:00:32;1;1;
54553;PMS5003;40450;55.848;-3.572;2023-07-29T05:03:03;3;2;
54553;PMS5003;40450;55.848;-3.572;2023-07-29T05:05:34;3;3;
54553;PMS5003;40450;55.848;-3.572;2023-07-29T05:08:04;2;2;
54553;PMS5003;40450;55.848;-3.572;2023-07-29T05:10:34;1;1;
54553;PMS5003;40450;55.848;-3.572;2023-07-29T05:13:05;2;2;
54553;PMS5003;40450;55.848;-3.572;2023-07-29T05:15:35;2;1;
54553;PMS5003;40450;55.848;-3.572;2023-07-29T05:18:05;2;2;
54553;PMS5003;40450;55.848;-3.572;2023-07-29T05:20:36;2;2;
54553;PMS5003;40450;55.848;-3.572;2023-07-29T05:23:06;2;2;
54553;PMS5003;40450;55.848;-3.572;2023-07-29T05:25:36;1;1;
54553;PMS5003;40450;55.848;-3.572;2023-07-29T05:28:07;1;1;
54553;PMS5003;40450;55.848;-3.572;2023-07-29T05:30:37;4;3;
54553;PMS5003;40450;55.848;-3.572;2023-07-29T05:33:07;1;1;
54553;PMS5003;40450;55.848;-3.572;2023-07-29T05:35:38;2;2;
54553;PMS5003;40450;55.848;-3.572;2023-07-29T05:38:08;3;2;
54553;PMS5003;40450;55.848;-3.572;2023-07-29T05:40:38;1;1;
54553;PMS5003;40450;55.848;-3.572;2023-07-29T05:43:09;0;0;
54553;PMS5003;40450;55.848;-3.572;2023-07-29T05:45:39;3;1;
54553;PMS5003;40450;55.848;-3.572;2023-07-29T05:48:09;2;2;
54553;PMS5003;40450;55.848;-3.572;2023-07-29T05:50:40;2;2;
54553;PMS5003;40450;55.848;-3.572;2023-07-29T05:53:11;1;1;
54553;PMS5003;40450;55.848;-3.572;2023-07-29T05:55:41;2;2;
54553;PMS5003;40450;55.848;-3.572;2023-07-29T05:58:11;1;1;
54553;PMS5003;40450;55.848;-3.572;2023-07-29T06:00:42;3;2;
54553;PMS5003;40450;55.848;-3.572;2023-07-29T06:03:12;2;2;
54553;PMS5003;40450;55.848;-3.572;2023-07-29T06:05:42;4;2;
54553;PMS5003;40450;55.848;-3.572;2023-07-29T06:08:13;2;2;
54553;PMS5003;40450;55.848;-3.572;2023-07-29T06:10:43;2;2;
54553;PMS5003;40450;55.848;-3.572;2023-07-29T06:13:13;2;2;
54553;PMS5003;40450;55.848;-3.572;2023-07-29T06:15:44;2;2;
54553;PMS5003;40450;55.848;-3.572;2023-07-29T07:13:21;2;2;
54553;PMS5003;40450;55.848;-3.572;2023-07-29T07:15:53;3;3;
54553;PMS5003;40450;55.848;-3.572;2023-07-29T07:18:22;1;1;
54553;PMS5003;40450;55.848;-3.572;2023-07-29T07:20:52;4;2;
54553;PMS5003;40450;55.848;-3.572;2023-07-29T07:23:23;6;3;
54553;PMS5003;40450;55.848;-3.572;2023-07-29T07:25:53;2;2;
54553;PMS5003;40450;55.848;-3.572;2023-07-29T07:28:23;5;3;
54553;PMS5003;40450;55.848;-3.572;2023-07-29T07:31:08;4;2;
54553;PMS5003;40450;55.848;-3.572;2023-07-29T07:33:24;2;2;
54553;PMS5003;40450;55.848;-3.572;2023-07-29T07:35:54;4;4;
54553;PMS5003;40450;55.848;-3.572;2023-07-29T07:38:24;0;0;
54553;PMS5003;40450;55.848;-3.572;2023-07-29T07:40:55;3;2;
54553;PMS5003;40450;55.848;-3.572;2023-07-29T07:43:25;3;3;
54553;PMS5003;40450;55.848;-3.572;2023-07-29T07:45:59;1;1;
54553;PMS5003;40450;55.848;-3.572;2023-07-29T07:48:26;1;1;
54553;PMS5003;40450;55.848;-3.572;2023-07-29T07:50:56;3;3;
54553;PMS5003;40450;55.848;-3.572;2023-07-29T07:53:32;1;1;
54553;PMS5003;40450;55.848;-3.572;2023-07-29T07:55:57;3;3;
54553;PMS5003;40450;55.848;-3.572;2023-07-29T07:58:27;1;1;
54553;PMS5003;40450;55.848;-3.572;2023-07-29T08:01:00;3;3;
54553;PMS5003;40450;55.848;-3.572;2023-07-29T08:03:27;1;1;
54553;PMS5003;40450;55.848;-3.572;2023-07-29T08:05:58;2;2;
54553;PMS5003;40450;55.848;-3.572;2023-07-29T08:08:28;2;2;
54553;PMS5003;40450;55.848;-3.572;2023-07-29T08:10:58;3;2;
54553;PMS5003;40450;55.848;-3.572;2023-07-29T08:13:29;1;1;
54553;PMS5003;40450;55.848;-3.572;2023-07-29T08:15:59;1;1;
54553;PMS5003;40450;55.848;-3.572;2023-07-29T08:18:30;2;2;
54553;PMS5003;40450;55.848;-3.572;2023-07-29T08:21:00;4;3;
54553;PMS5003;40450;55.848;-3.572;2023-07-29T08:23:31;2;1;
54553;PMS5003;40450;55.848;-3.572;2023-07-29T08:26:02;2;2;
54553;PMS5003;40450;55.848;-3.572;2023-07-29T08:28:32;1;1;
54553;PMS5003;40450;55.848;-3.572;2023-07-29T08:31:02;2;2;
54553;PMS5003;40450;55.848;-3.572;2023-07-29T08:33:32;1;1;
54553;PMS5003;40450;55.848;-3.572;2023-07-29T08:36:02;2;2;
54553;PMS5003;40450;55.848;-3.572;2023-07-29T08:38:32;3;3;
54553;PMS5003;40450;55.848;-3.572;2023-07-29T08:41:06;5;2;
54553;PMS5003;40450;55.848;-3.572;2023-07-29T08:43:33;3;1;
54553;PMS5003;40450;55.848;-3.572;2023-07-29T08:46:03;1;1;
54553;PMS5003;40450;55.848;-3.572;2023-07-29T08:48:36;2;2;
54553;PMS5003;40450;55.848;-3.572;2023-07-29T08:51:04;2;1;
54553;PMS5003;40450;55.848;-3.572;2023-07-29T08:53:35;2;2;
54553;PMS5003;40450;55.848;-3.572;2023-07-29T08:56:06;2;2;
54553;PMS5003;40450;55.848;-3.572;2023-07-29T08:58:35;3;3;
54553;PMS5003;40450;55.848;-3.572;2023-07-29T09:01:06;2;2;
54553;PMS5003;40450;55.848;-3.572;2023-07-29T09:03:36;2;1;
54553;PMS5003;40450;55.848;-3.572;2023-07-29T09:06:06;3;3;
54553;PMS5003;40450;55.848;-3.572;2023-07-29T09:08:37;3;3;
54553;PMS5003;40450;55.848;-3.572;2023-07-29T09:11:07;3;3;
54553;PMS5003;40450;55.848;-3.572;2023-07-29T09:13:38;1;1;
54553;PMS5003;40450;55.848;-3.572;2023-07-29T09:16:08;2;2;
54553;PMS5003;40450;55.848;-3.572;2023-07-29T09:18:38;2;2;
54553;PMS5003;40450;55.848;-3.572;2023-07-29T09:21:09;2;2;
54553;PMS5003;40450;55.848;-3.572;2023-07-29T09:23:40;1;1;
54553;PMS5003;40450;55.848;-3.572;2023-07-29T09:26:10;2;2;
54553;PMS5003;40450;55.848;-3.572;2023-07-29T09:28:40;3;3;
54553;PMS5003;40450;55.848;-3.572;2023-07-29T09:33:40;1;1;
54553;PMS5003;40450;55.848;-3.572;2023-07-29T09:36:11;2;1;
54553;PMS5003;40450;55.848;-3.572;2023-07-29T09:38:41;3;3;
54553;PMS5003;40450;55.848;-3.572;2023-07-29T09:41:11;1;1;
54553;PMS5003;40450;55.848;-3.572;2023-07-29T09:43:42;3;3;
54553;PMS5003;40450;55.848;-3.572;2023-07-29T09:46:12;1;1;
54553;PMS5003;40450;55.848;-3.572;2023-07-29T09:48:42;2;2;
54553;PMS5003;40450;55.848;-3.572;2023-07-29T09:51:14;1;1;
54553;PMS5003;40450;55.848;-3.572;2023-07-29T09:53:44;2;2;
54553;PMS5003;40450;55.848;-3.572;2023-07-29T09:56:14;2;2;
54553;PMS5003;40450;55.848;-3.572;2023-07-29T09:58:44;5;2;
54553;PMS5003;40450;55.848;-3.572;2023-07-29T10:01:15;3;3;
54553;PMS5003;40450;55.848;-3.572;2023-07-29T10:03:45;5;2;
54553;PMS5003;40450;55.848;-3.572;2023-07-29T10:06:15;4;4;
54553;PMS5003;40450;55.848;-3.572;2023-07-29T10:08:45;2;2;
54553;PMS5003;40450;55.848;-3.572;2023-07-29T10:11:16;1;1;
54553;PMS5003;40450;55.848;-3.572;2023-07-29T10:13:47;2;2;
54553;PMS5003;40450;55.848;-3.572;2023-07-29T10:16:17;0;0;
54553;PMS5003;40450;55.848;-3.572;2023-07-29T10:18:47;2;2;
54553;PMS5003;40450;55.848;-3.572;2023-07-29T10:21:17;0;0;
54553;PMS5003;40450;55.848;-3.572;2023-07-29T10:23:49;1;1;
54553;PMS5003;40450;55.848;-3.572;2023-07-29T10:26:19;1;1;
54553;PMS5003;40450;55.848;-3.572;2023-07-29T10:28:49;1;1;
54553;PMS5003;40450;55.848;-3.572;2023-07-29T10:31:19;3;3;
54553;PMS5003;40450;55.848;-3.572;2023-07-29T10:33:49;0;0;
54553;PMS5003;40450;55.848;-3.572;2023-07-29T10:36:19;0;0;
54553;PMS5003;40450;55.848;-3.572;2023-07-29T10:38:50;1;1;
54553;PMS5003;40450;55.848;-3.572;2023-07-29T10:41:20;1;1;
54553;PMS5003;40450;55.848;-3.572;2023-07-29T10:43:51;1;1;
54553;PMS5003;40450;55.848;-3.572;2023-07-29T10:46:22;1;1;
54553;PMS5003;40450;55.848;-3.572;2023-07-29T10:48:53;1;1;
54553;PMS5003;40450;55.848;-3.572;2023-07-29T10:51:25;2;2;
54553;PMS5003;40450;55.848;-3.572;2023-07-29T10:53:52;3;2;
54553;PMS5003;40450;55.848;-3.572;2023-07-29T10:58:55;2;1;
54553;PMS5003;40450;55.848;-3.572;2023-07-29T11:01:27;1;1;
54553;PMS5003;40450;55.848;-3.572;2023-07-29T11:06:24;2;0;
54553;PMS5003;40450;55.848;-3.572;2023-07-29T11:08:54;1;1;
54553;PMS5003;40450;55.848;-3.572;2023-07-29T11:11:24;2;2;
54553;PMS5003;40450;55.848;-3.572;2023-07-29T11:13:55;2;1;
54553;PMS5003;40450;55.848;-3.572;2023-07-29T11:16:25;1;1;
54553;PMS5003;40450;55.848;-3.572;2023-07-29T11:18:56;4;3;
54553;PMS5003;40450;55.848;-3.572;2023-07-29T11:21:25;1;1;
54553;PMS5003;40450;55.848;-3.572;2023-07-29T11:23:56;2;2;
54553;PMS5003;40450;55.848;-3.572;2023-07-29T11:26:26;2;2;
54553;PMS5003;40450;55.848;-3.572;2023-07-29T11:28:56;0;0;
54553;PMS5003;40450;55.848;-3.572;2023-07-29T11:33:57;0;0;
54553;PMS5003;40450;55.848;-3.572;2023-07-29T11:36:27;0;0;
54553;PMS5003;40450;55.848;-3.572;2023-07-29T11:38:57;2;2;
54553;PMS5003;40450;55.848;-3.572;2023-07-29T11:41:28;3;3;
54553;PMS5003;40450;55.848;-3.572;2023-07-29T11:43:58;3;1;
54553;PMS5003;40450;55.848;-3.572;2023-07-29T11:46:29;3;3;
54553;PMS5003;40450;55.848;-3.572;2023-07-29T11:48:59;0;0;
54553;PMS5003;40450;55.848;-3.572;2023-07-29T11:51:29;3;1;
54553;PMS5003;40450;55.848;-3.572;2023-07-29T11:53:59;2;2;
54553;PMS5003;40450;55.848;-3.572;2023-07-29T11:56:30;1;1;
54553;PMS5003;40450;55.848;-3.572;2023-07-29T11:59:01;2;1;
54553;PMS5003;40450;55.848;-3.572;2023-07-29T12:01:31;3;3;
54553;PMS5003;40450;55.848;-3.572;2023-07-29T12:04:01;2;2;
54553;PMS5003;40450;55.848;-3.572;2023-07-29T12:06:31;2;2;
54553;PMS5003;40450;55.848;-3.572;2023-07-29T12:09:02;1;1;
54553;PMS5003;40450;55.848;-3.572;2023-07-29T12:11:32;3;3;
54553;PMS5003;40450;55.848;-3.572;2023-07-29T12:14:03;2;2;
54553;PMS5003;40450;55.848;-3.572;2023-07-29T12:19:04;2;2;
54553;PMS5003;40450;55.848;-3.572;2023-07-29T12:21:33;2;1;
54553;PMS5003;40450;55.848;-3.572;2023-07-29T12:24:04;3;2;
54553;PMS5003;40450;55.848;-3.572;2023-07-29T12:26:35;3;3;
54553;PMS5003;40450;55.848;-3.572;2023-07-29T12:31:37;2;2;
54553;PMS5003;40450;55.848;-3.572;2023-07-29T12:34:06;4;3;
54553;PMS5003;40450;55.848;-3.572;2023-07-29T12:41:37;1;1;
54553;PMS5003;40450;55.848;-3.572;2023-07-29T12:44:07;4;4;
54553;PMS5003;40450;55.848;-3.572;2023-07-29T12:46:37;3;3;
54553;PMS5003;40450;55.848;-3.572;2023-07-29T12:49:08;3;3;
54553;PMS5003;40450;55.848;-3.572;2023-07-29T12:51:38;3;3;
54553;PMS5003;40450;55.848;-3.572;2023-07-29T12:54:08;2;2;
54553;PMS5003;40450;55.848;-3.572;2023-07-29T12:56:39;4;3;
54553;PMS5003;40450;55.848;-3.572;2023-07-29T12:59:09;5;5;
54553;PMS5003;40450;55.848;-3.572;2023-07-29T13:01:40;1;1;
54553;PMS5003;40450;55.848;-3.572;2023-07-29T13:04:10;4;4;
54553;PMS5003;40450;55.848;-3.572;2023-07-29T13:06:40;4;4;
54553;PMS5003;40450;55.848;-3.572;2023-07-29T13:09:11;5;4;
54553;PMS5003;40450;55.848;-3.572;2023-07-29T13:11:41;2;2;
54553;PMS5003;40450;55.848;-3.572;2023-07-29T13:14:12;4;3;
54553;PMS5003;40450;55.848;-3.572;2023-07-29T13:16:42;3;3;
54553;PMS5003;40450;55.848;-3.572;2023-07-29T13:19:13;3;2;
54553;PMS5003;40450;55.848;-3.572;2023-07-29T13:21:43;5;2;
54553;PMS5003;40450;55.848;-3.572;2023-07-29T13:24:14;5;3;
54553;PMS5003;40450;55.848;-3.572;2023-07-29T13:26:45;4;4;
54553;PMS5003;40450;55.848;-3.572;2023-07-29T13:29:15;3;3;
54553;PMS5003;40450;55.848;-3.572;2023-07-29T13:31:46;2;2;
54553;PMS5003;40450;55.848;-3.572;2023-07-29T13:34:16;1;1;
54553;PMS5003;40450;55.848;-3.572;2023-07-29T13:36:46;2;2;
54553;PMS5003;40450;55.848;-3.572;2023-07-29T13:39:17;3;3;
54553;PMS5003;40450;55.848;-3.572;2023-07-29T13:41:47;3;3;
54553;PMS5003;40450;55.848;-3.572;2023-07-29T13:44:17;1;1;
54553;PMS5003;40450;55.848;-3.572;2023-07-29T13:46:48;3;3;
54553;PMS5003;40450;55.848;-3.572;2023-07-29T13:49:18;2;2;
54553;PMS5003;40450;55.848;-3.572;2023-07-29T13:51:48;1;1;
54553;PMS5003;40450;55.848;-3.572;2023-07-29T13:54:18;2;2;
54553;PMS5003;40450;55.848;-3.572;2023-07-29T13:56:49;1;1;
54553;PMS5003;40450;55.848;-3.572;2023-07-29T13:59:19;2;2;
54553;PMS5003;40450;55.848;-3.572;2023-07-29T14:01:50;2;2;
54553;PMS5003;40450;55.848;-3.572;2023-07-29T14:04:20;2;2;
54553;PMS5003;40450;55.848;-3.572;2023-07-29T14:06:51;2;2;
54553;PMS5003;40450;55.848;-3.572;2023-07-29T14:09:21;0;0;
54553;PMS5003;40450;55.848;-3.572;2023-07-29T14:11:53;2;2;
54553;PMS5003;40450;55.848;-3.572;2023-07-29T14:14:21;2;2;
54553;PMS5003;40450;55.848;-3.572;2023-07-29T14:16:52;2;2;
54553;PMS5003;40450;55.848;-3.572;2023-07-29T14:19:22;2;2;
54553;PMS5003;40450;55.848;-3.572;2023-07-29T14:21:52;1;1;
54553;PMS5003;40450;55.848;-3.572;2023-07-29T14:24:23;3;3;
54553;PMS5003;40450;55.848;-3.572;2023-07-29T14:26:53;2;2;
54553;PMS5003;40450;55.848;-3.572;2023-07-29T14:29:24;2;2;
54553;PMS5003;40450;55.848;-3.572;2023-07-29T14:31:54;2;2;
54553;PMS5003;40450;55.848;-3.572;2023-07-29T14:34:24;2;2;
54553;PMS5003;40450;55.848;-3.572;2023-07-29T14:36:55;2;2;
54553;PMS5003;40450;55.848;-3.572;2023-07-29T14:39:25;3;1;
54553;PMS5003;40450;55.848;-3.572;2023-07-29T14:41:55;2;2;
54553;PMS5003;40450;55.848;-3.572;2023-07-29T14:44:26;1;1;
54553;PMS5003;40450;55.848;-3.572;2023-07-29T14:46:57;3;3;
54553;PMS5003;40450;55.848;-3.572;2023-07-29T14:49:28;3;3;
54553;PMS5003;40450;55.848;-3.572;2023-07-29T14:51:57;3;2;
54553;PMS5003;40450;55.848;-3.572;2023-07-29T14:54:28;1;1;
54553;PMS5003;40450;55.848;-3.572;2023-07-29T14:56:58;1;1;
54553;PMS5003;40450;55.848;-3.572;2023-07-29T14:59:28;2;2;
54553;PMS5003;40450;55.848;-3.572;2023-07-29T15:01:59;0;0;
54553;PMS5003;40450;55.848;-3.572;2023-07-29T15:04:29;0;0;
54553;PMS5003;40450;55.848;-3.572;2023-07-29T15:06:59;1;1;
54553;PMS5003;40450;55.848;-3.572;2023-07-29T15:09:29;1;1;
54553;PMS5003;40450;55.848;-3.572;2023-07-29T15:12:00;1;1;
54553;PMS5003;40450;55.848;-3.572;2023-07-29T15:14:30;0;0;
54553;PMS5003;40450;55.848;-3.572;2023-07-29T15:17:00;1;1;
54553;PMS5003;40450;55.848;-3.572;2023-07-29T15:19:31;1;1;
54553;PMS5003;40450;55.848;-3.572;2023-07-29T15:22:01;4;2;
54553;PMS5003;40450;55.848;-3.572;2023-07-29T15:24:31;0;0;
54553;PMS5003;40450;55.848;-3.572;2023-07-29T15:27:02;1;0;
54553;PMS5003;40450;55.848;-3.572;2023-07-29T15:29:32;0;0;
54553;PMS5003;40450;55.848;-3.572;2023-07-29T15:32:02;3;1;
54553;PMS5003;40450;55.848;-3.572;2023-07-29T15:34:32;2;2;
54553;PMS5003;40450;55.848;-3.572;2023-07-29T15:37:03;4;2;
54553;PMS5003;40450;55.848;-3.572;2023-07-29T15:39:33;0;0;
54553;PMS5003;40450;55.848;-3.572;2023-07-29T15:42:03;1;1;
54553;PMS5003;40450;55.848;-3.572;2023-07-29T15:44:34;0;0;
54553;PMS5003;40450;55.848;-3.572;2023-07-29T15:47:04;2;0;
54553;PMS5003;40450;55.848;-3.572;2023-07-29T15:49:34;1;1;
54553;PMS5003;40450;55.848;-3.572;2023-07-29T15:52:05;0;0;
54553;PMS5003;40450;55.848;-3.572;2023-07-29T15:54:35;1;1;
54553;PMS5003;40450;55.848;-3.572;2023-07-29T15:57:06;0;0;
54553;PMS5003;40450;55.848;-3.572;2023-07-29T15:59:35;1;1;
54553;PMS5003;40450;55.848;-3.572;2023-07-29T16:02:06;1;1;
54553;PMS5003;40450;55.848;-3.572;2023-07-29T16:04:36;1;1;
54553;PMS5003;40450;55.848;-3.572;2023-07-29T16:07:06;2;1;
54553;PMS5003;40450;55.848;-3.572;2023-07-29T16:09:37;3;3;
54553;PMS5003;40450;55.848;-3.572;2023-07-29T16:12:07;2;2;
54553;PMS5003;40450;55.848;-3.572;2023-07-29T16:14:37;2;2;
54553;PMS5003;40450;55.848;-3.572;2023-07-29T16:17:08;2;2;
54553;PMS5003;40450;55.848;-3.572;2023-07-29T16:22:08;2;2;
54553;PMS5003;40450;55.848;-3.572;2023-07-29T16:24:38;2;2;
54553;PMS5003;40450;55.848;-3.572;2023-07-29T16:27:09;1;1;
54553;PMS5003;40450;55.848;-3.572;2023-07-29T16:29:39;1;1;
54553;PMS5003;40450;55.848;-3.572;2023-07-29T16:32:10;1;1;
54553;PMS5003;40450;55.848;-3.572;2023-07-29T16:34:40;2;1;
54553;PMS5003;40450;55.848;-3.572;2023-07-29T16:37:10;1;1;
54553;PMS5003;40450;55.848;-3.572;2023-07-29T16:39:41;2;1;
54553;PMS5003;40450;55.848;-3.572;2023-07-29T16:42:11;1;1;
54553;PMS5003;40450;55.848;-3.572;2023-07-29T16:44:42;1;1;
54553;PMS5003;40450;55.848;-3.572;2023-07-29T16:47:11;4;2;
54553;PMS5003;40450;55.848;-3.572;2023-07-29T16:49:42;1;1;
54553;PMS5003;40450;55.848;-3.572;2023-07-29T16:52:13;3;3;
54553;PMS5003;40450;55.848;-3.572;2023-07-29T16:54:43;1;1;
54553;PMS5003;40450;55.848;-3.572;2023-07-29T16:57:13;2;2;
54553;PMS5003;40450;55.848;-3.572;2023-07-29T16:59:44;1;1;
54553;PMS5003;40450;55.848;-3.572;2023-07-29T17:02:14;1;1;
54553;PMS5003;40450;55.848;-3.572;2023-07-29T17:04:44;0;0;
54553;PMS5003;40450;55.848;-3.572;2023-07-29T17:07:15;1;1;
54553;PMS5003;40450;55.848;-3.572;2023-07-29T17:09:45;1;1;
54553;PMS5003;40450;55.848;-3.572;2023-07-29T17:12:15;1;1;
54553;PMS5003;40450;55.848;-3.572;2023-07-29T17:14:45;3;3;
54553;PMS5003;40450;55.848;-3.572;2023-07-29T17:17:16;4;3;
54553;PMS5003;40450;55.848;-3.572;2023-07-29T17:19:46;2;2;
54553;PMS5003;40450;55.848;-3.572;2023-07-29T17:22:16;2;2;
54553;PMS5003;40450;55.848;-3.572;2023-07-29T17:24:47;3;2;
54553;PMS5003;40450;55.848;-3.572;2023-07-29T17:27:17;2;1;
54553;PMS5003;40450;55.848;-3.572;2023-07-29T17:29:47;2;2;
54553;PMS5003;40450;55.848;-3.572;2023-07-29T17:32:18;2;2;
54553;PMS5003;40450;55.848;-3.572;2023-07-29T17:34:49;0;0;
54553;PMS5003;40450;55.848;-3.572;2023-07-29T17:37:19;2;2;
54553;PMS5003;40450;55.848;-3.572;2023-07-29T17:39:49;4;1;
54553;PMS5003;40450;55.848;-3.572;2023-07-29T17:42:20;2;2;
54553;PMS5003;40450;55.848;-3.572;2023-07-29T17:44:50;2;2;
54553;PMS5003;40450;55.848;-3.572;2023-07-29T17:47:20;1;1;
54553;PMS5003;40450;55.848;-3.572;2023-07-29T17:49:51;0;0;
54553;PMS5003;40450;55.848;-3.572;2023-07-29T17:52:21;2;1;
54553;PMS5003;40450;55.848;-3.572;2023-07-29T17:54:51;2;2;
54553;PMS5003;40450;55.848;-3.572;2023-07-29T17:57:22;4;1;
54553;PMS5003;40450;55.848;-3.572;2023-07-29T17:59:52;1;1;
54553;PMS5003;40450;55.848;-3.572;2023-07-29T18:02:23;4;4;
54553;PMS5003;40450;55.848;-3.572;2023-07-29T18:04:54;2;2;
54553;PMS5003;40450;55.848;-3.572;2023-07-29T18:07:23;3;1;
54553;PMS5003;40450;55.848;-3.572;2023-07-29T18:09:54;3;1;
54553;PMS5003;40450;55.848;-3.572;2023-07-29T18:12:24;1;1;